SWA2218 KFLL-KMSY
Flight info
| Callsign | SWA2218 |
|---|---|
| Flight time | N/A |
| Altitude | 36000 |
| Route | BNICE2 DOLIE Y280 REDFN Q105 HRV |
| Aircraft | B737/M-SDE2E3FGHIRWXY/LB1 |
Departure
| Time | 2026-05-03 23:02 |
|---|---|
| Airport | Fort Lauderdale Hollywood International Airport (KFLL) |
Arrival
| Time | N/A |
|---|---|
| Airport | Louis Armstrong New Orleans International Airport (KMSY) |
| Time | Latitude | Longitude | Altitude | Speed | Heading |
|---|---|---|---|---|---|
| 2026-05-03 21:08 | 26.07404 | -80.13907 | 15 ft | 0 kts | 146° |
| 2026-05-03 21:58 | 26.07415 | -80.13915 | 24 ft | 2 kts | 146° |
| 2026-05-03 21:58 | 26.07429 | -80.13925 | 11 ft | 2 kts | 146° |
| 2026-05-03 21:58 | 26.07442 | -80.13936 | 15 ft | 2 kts | 146° |
| 2026-05-03 21:58 | 26.07456 | -80.13945 | 15 ft | 2 kts | 162° |
| 2026-05-03 21:59 | 26.07472 | -80.13946 | 18 ft | 1 kts | 221° |
| 2026-05-03 21:59 | 26.07477 | -80.13940 | 16 ft | 0 kts | 235° |
| 2026-05-03 22:10 | 26.07477 | -80.13969 | 16 ft | 9 kts | 268° |
| 2026-05-03 22:10 | 26.07484 | -80.14070 | 15 ft | 14 kts | 276° |
| 2026-05-03 22:10 | 26.07486 | -80.14179 | 15 ft | 14 kts | 271° |
| 2026-05-03 22:10 | 26.07486 | -80.14313 | 15 ft | 19 kts | 270° |
| 2026-05-03 22:11 | 26.07487 | -80.14456 | 15 ft | 18 kts | 271° |
| 2026-05-03 22:11 | 26.07488 | -80.14602 | 15 ft | 20 kts | 270° |
| 2026-05-03 22:11 | 26.07488 | -80.14755 | 15 ft | 20 kts | 268° |
| 2026-05-03 22:11 | 26.07488 | -80.14905 | 15 ft | 19 kts | 271° |
| 2026-05-03 22:12 | 26.07489 | -80.15050 | 15 ft | 19 kts | 270° |
| 2026-05-03 22:12 | 26.07489 | -80.15192 | 15 ft | 18 kts | 270° |
| 2026-05-03 22:12 | 26.07490 | -80.15336 | 15 ft | 18 kts | 270° |
| 2026-05-03 22:12 | 26.07491 | -80.15473 | 15 ft | 18 kts | 270° |
| 2026-05-03 22:13 | 26.07492 | -80.15609 | 15 ft | 17 kts | 270° |
| 2026-05-03 22:13 | 26.07493 | -80.15730 | 15 ft | 9 kts | 270° |
| 2026-05-03 22:13 | 26.07493 | -80.15762 | 15 ft | 0 kts | 270° |
| 2026-05-03 22:15 | 26.07493 | -80.15813 | 15 ft | 8 kts | 271° |
| 2026-05-03 22:16 | 26.07494 | -80.15881 | 15 ft | 9 kts | 270° |
| 2026-05-03 22:16 | 26.07494 | -80.15893 | 15 ft | 0 kts | 270° |
| 2026-05-03 22:18 | 26.07494 | -80.15902 | 15 ft | 4 kts | 270° |
| 2026-05-03 22:18 | 26.07494 | -80.15908 | 15 ft | 0 kts | 270° |
| 2026-05-03 22:20 | 26.07494 | -80.15910 | 15 ft | 1 kts | 270° |
| 2026-05-03 22:20 | 26.07494 | -80.15949 | 15 ft | 8 kts | 270° |
| 2026-05-03 22:21 | 26.07494 | -80.15993 | 15 ft | 0 kts | 270° |
| 2026-05-03 22:22 | 26.07494 | -80.15997 | 15 ft | 3 kts | 270° |
| 2026-05-03 22:22 | 26.07494 | -80.16030 | 15 ft | 0 kts | 270° |
| 2026-05-03 22:25 | 26.07494 | -80.16031 | 15 ft | 1 kts | 270° |
| 2026-05-03 22:25 | 26.07495 | -80.16061 | 15 ft | 6 kts | 270° |
| 2026-05-03 22:26 | 26.07495 | -80.16075 | 15 ft | 0 kts | 270° |
| 2026-05-03 22:26 | 26.07495 | -80.16077 | 15 ft | 2 kts | 270° |
| 2026-05-03 22:26 | 26.07495 | -80.16091 | 15 ft | 4 kts | 270° |
| 2026-05-03 22:27 | 26.07495 | -80.16122 | 15 ft | 0 kts | 269° |
| 2026-05-03 22:32 | 26.07495 | -80.16164 | 15 ft | 11 kts | 270° |
| 2026-05-03 22:32 | 26.07495 | -80.16182 | 15 ft | 0 kts | 270° |
| 2026-05-03 22:35 | 26.07495 | -80.16192 | 15 ft | 5 kts | 270° |
| 2026-05-03 22:35 | 26.07495 | -80.16221 | 15 ft | 0 kts | 270° |
| 2026-05-03 22:38 | 26.07495 | -80.16229 | 15 ft | 4 kts | 270° |
| 2026-05-03 22:39 | 26.07496 | -80.16279 | 15 ft | 6 kts | 271° |
| 2026-05-03 22:39 | 26.07496 | -80.16280 | 15 ft | 0 kts | 271° |
| 2026-05-03 22:40 | 26.07496 | -80.16292 | 15 ft | 6 kts | 271° |
| 2026-05-03 22:40 | 26.07496 | -80.16343 | 15 ft | 7 kts | 270° |
| 2026-05-03 22:40 | 26.07496 | -80.16390 | 15 ft | 0 kts | 270° |
| 2026-05-03 22:45 | 26.07496 | -80.16391 | 15 ft | 1 kts | 270° |
| 2026-05-03 22:45 | 26.07497 | -80.16414 | 15 ft | 0 kts | 270° |
| 2026-05-03 22:45 | 26.07497 | -80.16417 | 15 ft | 0 kts | 270° |
| 2026-05-03 22:48 | 26.07497 | -80.16427 | 15 ft | 3 kts | 270° |
| 2026-05-03 22:49 | 26.07497 | -80.16445 | 15 ft | 3 kts | 270° |
| 2026-05-03 22:49 | 26.07497 | -80.16471 | 15 ft | 4 kts | 270° |
| 2026-05-03 22:49 | 26.07497 | -80.16514 | 15 ft | 5 kts | 270° |
| 2026-05-03 22:49 | 26.07497 | -80.16517 | 15 ft | 0 kts | 270° |
| 2026-05-03 22:50 | 26.07497 | -80.16518 | 15 ft | 1 kts | 270° |
| 2026-05-03 22:50 | 26.07497 | -80.16551 | 15 ft | 6 kts | 270° |
| 2026-05-03 22:50 | 26.07498 | -80.16574 | 15 ft | 0 kts | 270° |
| 2026-05-03 22:55 | 26.07498 | -80.16575 | 15 ft | 1 kts | 270° |
| 2026-05-03 22:55 | 26.07498 | -80.16593 | 15 ft | 3 kts | 270° |
| 2026-05-03 22:55 | 26.07502 | -80.16621 | 15 ft | 4 kts | 292° |
| 2026-05-03 22:55 | 26.07523 | -80.16642 | 15 ft | 4 kts | 340° |
| 2026-05-03 22:56 | 26.07535 | -80.16643 | 15 ft | 0 kts | 359° |
| 2026-05-03 22:58 | 26.07536 | -80.16643 | 18 ft | 2 kts | 359° |
| 2026-05-03 22:59 | 26.07584 | -80.16643 | 17 ft | 5 kts | 1° |
| 2026-05-03 22:59 | 26.07592 | -80.16643 | 16 ft | 0 kts | 1° |
| 2026-05-03 22:59 | 26.07596 | -80.16643 | 16 ft | 4 kts | 1° |
| 2026-05-03 23:00 | 26.07656 | -80.16641 | 17 ft | 12 kts | 1° |
| 2026-05-03 23:00 | 26.07707 | -80.16603 | 17 ft | 8 kts | 78° |
| 2026-05-03 23:00 | 26.07695 | -80.16547 | 17 ft | 5 kts | 94° |
| 2026-05-03 23:00 | 26.07695 | -80.16543 | 17 ft | 0 kts | 91° |
| 2026-05-03 23:01 | 26.07695 | -80.16539 | 17 ft | 5 kts | 91° |
| 2026-05-03 23:01 | 26.07694 | -80.16322 | 20 ft | 62 kts | 90° |
| 2026-05-03 23:01 | 26.07700 | -80.15569 | 14 ft | 130 kts | 86° |
| 2026-05-03 23:02 | 26.07670 | -80.14377 | 182 ft | 166 kts | 91° |
| 2026-05-03 23:02 | 26.07518 | -80.13127 | 914 ft | 171 kts | 105° |
| 2026-05-03 23:02 | 26.07339 | -80.11577 | 850 ft | 232 kts | 88° |
| 2026-05-03 23:02 | 26.07903 | -80.09809 | 1132 ft | 261 kts | 58° |
| 2026-05-03 23:03 | 26.08757 | -80.08099 | 2152 ft | 254 kts | 68° |
| 2026-05-03 23:03 | 26.09707 | -80.06438 | 2874 ft | 259 kts | 38° |
| 2026-05-03 23:03 | 26.11339 | -80.05586 | 3260 ft | 271 kts | 9° |
| 2026-05-03 23:03 | 26.13199 | -80.05110 | 3980 ft | 277 kts | 11° |
| 2026-05-03 23:04 | 26.15083 | -80.04668 | 4837 ft | 274 kts | 355° |
| 2026-05-03 23:04 | 26.16989 | -80.05105 | 4939 ft | 299 kts | 331° |
| 2026-05-03 23:04 | 26.18696 | -80.06304 | 5096 ft | 279 kts | 324° |
| 2026-05-03 23:04 | 26.20426 | -80.07406 | 4415 ft | 289 kts | 329° |
| 2026-05-03 23:05 | 26.22178 | -80.08401 | 4275 ft | 275 kts | 328° |
| 2026-05-03 23:05 | 26.23681 | -80.09732 | 3504 ft | 282 kts | 306° |
| 2026-05-03 23:05 | 26.24597 | -80.11523 | 3764 ft | 253 kts | 288° |
| 2026-05-03 23:05 | 26.25078 | -80.13424 | 3912 ft | 257 kts | 283° |
| 2026-05-03 23:06 | 26.25580 | -80.15323 | 3965 ft | 254 kts | 285° |
| 2026-05-03 23:06 | 26.25896 | -80.17238 | 4005 ft | 256 kts | 276° |
| 2026-05-03 23:06 | 26.26116 | -80.19218 | 3984 ft | 257 kts | 276° |
| 2026-05-03 23:06 | 26.26346 | -80.21199 | 3981 ft | 257 kts | 277° |
| 2026-05-03 23:07 | 26.26588 | -80.23168 | 3995 ft | 255 kts | 277° |
| 2026-05-03 23:07 | 26.26839 | -80.25127 | 4014 ft | 253 kts | 277° |
| 2026-05-03 23:07 | 26.27095 | -80.27063 | 4101 ft | 256 kts | 277° |
| 2026-05-03 23:07 | 26.27364 | -80.29054 | 4758 ft | 261 kts | 278° |
| 2026-05-03 23:08 | 26.27634 | -80.31022 | 5860 ft | 254 kts | 278° |
| 2026-05-03 23:08 | 26.27906 | -80.32982 | 6678 ft | 258 kts | 278° |
| 2026-05-03 23:08 | 26.28180 | -80.34950 | 7458 ft | 263 kts | 278° |
| 2026-05-03 23:08 | 26.28465 | -80.36982 | 8288 ft | 268 kts | 277° |
| 2026-05-03 23:09 | 26.28756 | -80.39050 | 9210 ft | 271 kts | 277° |
| 2026-05-03 23:09 | 26.29049 | -80.41138 | 10150 ft | 274 kts | 276° |
| 2026-05-03 23:09 | 26.29351 | -80.43293 | 10678 ft | 292 kts | 276° |
| 2026-05-03 23:09 | 26.29676 | -80.45627 | 10899 ft | 318 kts | 276° |
| 2026-05-03 23:10 | 26.30030 | -80.48166 | 11086 ft | 343 kts | 276° |
| 2026-05-03 23:10 | 26.30410 | -80.50871 | 11372 ft | 361 kts | 276° |
| 2026-05-03 23:10 | 26.30805 | -80.53667 | 11882 ft | 370 kts | 276° |
| 2026-05-03 23:10 | 26.31208 | -80.56517 | 12513 ft | 373 kts | 276° |
| 2026-05-03 23:11 | 26.31612 | -80.59369 | 12947 ft | 373 kts | 276° |
| 2026-05-03 23:11 | 26.32013 | -80.62221 | 12988 ft | 373 kts | 276° |
| 2026-05-03 23:11 | 26.32416 | -80.65090 | 13001 ft | 374 kts | 276° |
| 2026-05-03 23:11 | 26.32817 | -80.67956 | 13008 ft | 374 kts | 276° |
| 2026-05-03 23:12 | 26.33218 | -80.70823 | 13005 ft | 374 kts | 276° |
| 2026-05-03 23:12 | 26.33617 | -80.73687 | 13009 ft | 374 kts | 276° |
| 2026-05-03 23:12 | 26.34016 | -80.76557 | 13006 ft | 374 kts | 276° |
| 2026-05-03 23:12 | 26.34413 | -80.79414 | 13009 ft | 374 kts | 276° |
| 2026-05-03 23:13 | 26.34811 | -80.82282 | 13011 ft | 373 kts | 276° |
| 2026-05-03 23:13 | 26.35208 | -80.85140 | 13014 ft | 373 kts | 276° |
| 2026-05-03 23:13 | 26.35603 | -80.88003 | 13011 ft | 373 kts | 276° |
| 2026-05-03 23:13 | 26.36080 | -80.90816 | 12994 ft | 376 kts | 284° |
| 2026-05-03 23:14 | 26.37204 | -80.93470 | 13013 ft | 383 kts | 299° |
| 2026-05-03 23:14 | 26.38975 | -80.95725 | 13025 ft | 389 kts | 311° |
| 2026-05-03 23:14 | 26.40958 | -80.97789 | 13010 ft | 390 kts | 313° |
| 2026-05-03 23:14 | 26.42967 | -80.99825 | 13011 ft | 390 kts | 313° |
| 2026-05-03 23:15 | 26.44966 | -81.01865 | 13062 ft | 389 kts | 312° |
| 2026-05-03 23:15 | 26.46954 | -81.03925 | 13015 ft | 390 kts | 312° |
| 2026-05-03 23:15 | 26.48930 | -81.05996 | 13014 ft | 390 kts | 312° |
| 2026-05-03 23:15 | 26.50906 | -81.08075 | 13011 ft | 390 kts | 312° |
| 2026-05-03 23:16 | 26.52876 | -81.10152 | 13011 ft | 389 kts | 312° |
| 2026-05-03 23:16 | 26.54847 | -81.12229 | 13014 ft | 389 kts | 312° |
| 2026-05-03 23:16 | 26.56816 | -81.14306 | 13015 ft | 389 kts | 311° |
| 2026-05-03 23:16 | 26.58779 | -81.16379 | 13017 ft | 388 kts | 311° |
| 2026-05-03 23:17 | 26.60744 | -81.18453 | 13020 ft | 388 kts | 311° |
| 2026-05-03 23:17 | 26.62713 | -81.20532 | 13019 ft | 388 kts | 311° |
| 2026-05-03 23:17 | 26.64649 | -81.22578 | 13021 ft | 388 kts | 311° |
| 2026-05-03 23:17 | 26.66605 | -81.24652 | 13021 ft | 388 kts | 311° |
| 2026-05-03 23:18 | 26.68560 | -81.26729 | 13122 ft | 392 kts | 311° |
| 2026-05-03 23:18 | 26.70540 | -81.28834 | 13870 ft | 392 kts | 311° |
| 2026-05-03 23:18 | 26.72527 | -81.30947 | 14476 ft | 395 kts | 311° |
| 2026-05-03 23:18 | 26.74523 | -81.33071 | 15097 ft | 397 kts | 311° |
| 2026-05-03 23:19 | 26.76524 | -81.35201 | 15723 ft | 399 kts | 311° |
| 2026-05-03 23:19 | 26.78546 | -81.37354 | 16310 ft | 402 kts | 310° |
| 2026-05-03 23:19 | 26.80584 | -81.39526 | 16872 ft | 405 kts | 310° |
| 2026-05-03 23:19 | 26.82635 | -81.41712 | 17422 ft | 408 kts | 310° |
| 2026-05-03 23:20 | 26.84695 | -81.43908 | 17966 ft | 410 kts | 310° |
| 2026-05-03 23:20 | 26.86769 | -81.46121 | 18467 ft | 413 kts | 310° |
| 2026-05-03 23:20 | 26.88856 | -81.48349 | 18913 ft | 416 kts | 310° |
| 2026-05-03 23:20 | 26.90931 | -81.50565 | 19353 ft | 418 kts | 310° |
| 2026-05-03 23:21 | 26.93045 | -81.52823 | 19780 ft | 420 kts | 310° |
| 2026-05-03 23:21 | 26.95167 | -81.55091 | 20203 ft | 423 kts | 310° |
| 2026-05-03 23:21 | 26.97300 | -81.57373 | 20615 ft | 425 kts | 310° |
| 2026-05-03 23:21 | 26.99449 | -81.59673 | 21024 ft | 427 kts | 310° |
| 2026-05-03 23:22 | 27.03766 | -81.64297 | 21808 ft | 431 kts | 310° |
| 2026-05-03 23:22 | 27.05938 | -81.66625 | 22185 ft | 433 kts | 310° |
| 2026-05-03 23:22 | 27.08125 | -81.68971 | 22554 ft | 435 kts | 309° |
| 2026-05-03 23:23 | 27.10319 | -81.71326 | 22902 ft | 437 kts | 309° |
| 2026-05-03 23:23 | 27.12517 | -81.73685 | 23245 ft | 438 kts | 309° |
| 2026-05-03 23:23 | 27.14724 | -81.76057 | 23563 ft | 440 kts | 309° |
| 2026-05-03 23:23 | 27.16936 | -81.78435 | 23838 ft | 441 kts | 309° |
| 2026-05-03 23:24 | 27.19157 | -81.80825 | 24096 ft | 442 kts | 309° |
| 2026-05-03 23:24 | 27.21353 | -81.83188 | 24349 ft | 443 kts | 309° |
| 2026-05-03 23:24 | 27.23583 | -81.85589 | 24605 ft | 444 kts | 309° |
| 2026-05-03 23:24 | 27.25820 | -81.88000 | 24865 ft | 445 kts | 309° |
| 2026-05-03 23:25 | 27.27795 | -81.90623 | 25058 ft | 436 kts | 297° |
| 2026-05-03 23:25 | 27.29117 | -81.93647 | 25303 ft | 428 kts | 284° |
| 2026-05-03 23:25 | 27.29839 | -81.96874 | 25564 ft | 425 kts | 278° |
| 2026-05-03 23:25 | 27.30427 | -82.00129 | 25782 ft | 426 kts | 278° |
| 2026-05-03 23:26 | 27.30997 | -82.03405 | 25978 ft | 427 kts | 278° |
| 2026-05-03 23:26 | 27.31573 | -82.06690 | 26183 ft | 429 kts | 278° |
| 2026-05-03 23:26 | 27.32162 | -82.09983 | 26389 ft | 430 kts | 278° |
| 2026-05-03 23:26 | 27.32761 | -82.13277 | 26595 ft | 431 kts | 278° |
| 2026-05-03 23:27 | 27.33369 | -82.16578 | 26796 ft | 432 kts | 278° |
| 2026-05-03 23:27 | 27.33982 | -82.19889 | 26987 ft | 432 kts | 278° |
| 2026-05-03 23:27 | 27.34589 | -82.23163 | 27159 ft | 433 kts | 278° |
| 2026-05-03 23:27 | 27.35204 | -82.26483 | 27319 ft | 434 kts | 278° |
| 2026-05-03 23:28 | 27.35819 | -82.29805 | 27492 ft | 434 kts | 278° |
| 2026-05-03 23:28 | 27.36432 | -82.33125 | 27692 ft | 433 kts | 278° |
| 2026-05-03 23:28 | 27.37042 | -82.36438 | 27954 ft | 432 kts | 278° |
| 2026-05-03 23:28 | 27.37651 | -82.39745 | 28246 ft | 430 kts | 278° |
| 2026-05-03 23:29 | 27.38252 | -82.43014 | 28813 ft | 422 kts | 277° |
| 2026-05-03 23:29 | 27.38843 | -82.46227 | 29352 ft | 416 kts | 277° |
| 2026-05-03 23:29 | 27.39422 | -82.49391 | 29867 ft | 411 kts | 277° |
| 2026-05-03 23:29 | 27.39996 | -82.52530 | 30299 ft | 408 kts | 277° |
| 2026-05-03 23:30 | 27.40566 | -82.55655 | 30641 ft | 407 kts | 277° |
| 2026-05-03 23:30 | 27.41132 | -82.58733 | 30940 ft | 406 kts | 277° |
| 2026-05-03 23:30 | 27.41713 | -82.61843 | 31269 ft | 405 kts | 277° |
| 2026-05-03 23:30 | 27.42295 | -82.64934 | 31637 ft | 403 kts | 277° |
| 2026-05-03 23:31 | 27.42874 | -82.68014 | 32016 ft | 401 kts | 276° |
| 2026-05-03 23:31 | 27.43451 | -82.71087 | 32389 ft | 399 kts | 276° |
| 2026-05-03 23:31 | 27.44023 | -82.74144 | 32759 ft | 397 kts | 276° |
| 2026-05-03 23:31 | 27.44589 | -82.77179 | 33139 ft | 395 kts | 276° |
| 2026-05-03 23:32 | 27.45152 | -82.80198 | 33511 ft | 394 kts | 275° |
| 2026-05-03 23:32 | 27.45711 | -82.83208 | 33886 ft | 392 kts | 275° |
| 2026-05-03 23:32 | 27.46268 | -82.86204 | 34226 ft | 390 kts | 275° |
| 2026-05-03 23:32 | 27.46820 | -82.89184 | 34523 ft | 388 kts | 275° |
| 2026-05-03 23:33 | 27.47370 | -82.92153 | 34815 ft | 386 kts | 275° |
| 2026-05-03 23:33 | 27.47917 | -82.95109 | 35109 ft | 385 kts | 275° |
| 2026-05-03 23:33 | 27.48460 | -82.98054 | 35374 ft | 383 kts | 275° |
| 2026-05-03 23:33 | 27.48995 | -83.00953 | 35635 ft | 382 kts | 275° |
| 2026-05-03 23:34 | 27.49533 | -83.03873 | 35907 ft | 380 kts | 275° |
| 2026-05-03 23:34 | 27.50071 | -83.06798 | 36056 ft | 381 kts | 275° |
| 2026-05-03 23:34 | 27.51147 | -83.12667 | 36057 ft | 380 kts | 275° |
| 2026-05-03 23:35 | 27.52035 | -83.17500 | 36072 ft | 378 kts | 275° |
| 2026-05-03 23:35 | 27.53093 | -83.23292 | 36072 ft | 377 kts | 274° |
| 2026-05-03 23:36 | 27.54312 | -83.30006 | 36070 ft | 376 kts | 274° |
| 2026-05-03 23:36 | 27.55358 | -83.35778 | 36076 ft | 376 kts | 274° |
| 2026-05-03 23:37 | 27.56226 | -83.40581 | 36073 ft | 376 kts | 274° |
| 2026-05-03 23:37 | 27.57267 | -83.46353 | 36077 ft | 376 kts | 274° |
| 2026-05-03 23:38 | 27.58306 | -83.52125 | 36076 ft | 376 kts | 274° |
| 2026-05-03 23:38 | 27.59344 | -83.57908 | 36077 ft | 376 kts | 274° |
| 2026-05-03 23:39 | 27.60379 | -83.63689 | 36077 ft | 376 kts | 274° |
| 2026-05-03 23:39 | 27.61413 | -83.69476 | 36080 ft | 376 kts | 274° |
| 2026-05-03 23:40 | 27.62437 | -83.75225 | 36081 ft | 376 kts | 274° |
| 2026-05-03 23:40 | 27.63464 | -83.81003 | 36084 ft | 375 kts | 274° |
| 2026-05-03 23:41 | 27.64488 | -83.86776 | 36083 ft | 375 kts | 274° |
| 2026-05-03 23:41 | 27.65509 | -83.92554 | 36086 ft | 375 kts | 274° |
| 2026-05-03 23:42 | 27.66528 | -83.98331 | 36087 ft | 375 kts | 274° |
| 2026-05-03 23:42 | 27.67538 | -84.04068 | 36088 ft | 375 kts | 274° |
| 2026-05-03 23:43 | 27.68551 | -84.09839 | 36088 ft | 375 kts | 274° |
| 2026-05-03 23:43 | 27.69560 | -84.15606 | 36091 ft | 374 kts | 274° |
| 2026-05-03 23:44 | 27.70567 | -84.21374 | 36090 ft | 374 kts | 274° |
| 2026-05-03 23:44 | 27.71572 | -84.27144 | 36092 ft | 374 kts | 274° |
| 2026-05-03 23:45 | 27.72574 | -84.32914 | 36091 ft | 374 kts | 274° |
| 2026-05-03 23:45 | 27.73567 | -84.38641 | 36098 ft | 374 kts | 274° |
| 2026-05-03 23:46 | 27.74563 | -84.44407 | 36099 ft | 374 kts | 274° |
| 2026-05-03 23:46 | 27.75557 | -84.50173 | 36101 ft | 374 kts | 274° |
| 2026-05-03 23:47 | 27.76549 | -84.55944 | 36098 ft | 374 kts | 274° |
| 2026-05-03 23:47 | 27.77538 | -84.61713 | 36095 ft | 374 kts | 274° |
| 2026-05-03 23:48 | 27.78526 | -84.67487 | 36091 ft | 374 kts | 274° |
| 2026-05-03 23:48 | 27.79505 | -84.73226 | 36098 ft | 374 kts | 274° |
| 2026-05-03 23:49 | 27.80488 | -84.79003 | 36101 ft | 374 kts | 274° |
| 2026-05-03 23:49 | 27.81470 | -84.84784 | 36104 ft | 375 kts | 275° |
| 2026-05-03 23:50 | 27.82454 | -84.90564 | 36103 ft | 375 kts | 275° |
| 2026-05-03 23:50 | 27.83438 | -84.96356 | 36097 ft | 375 kts | 275° |
| 2026-05-03 23:51 | 27.84414 | -85.02113 | 36102 ft | 375 kts | 275° |
| 2026-05-03 23:51 | 27.85394 | -85.07913 | 36103 ft | 375 kts | 275° |
| 2026-05-03 23:52 | 27.86371 | -85.13709 | 36105 ft | 375 kts | 275° |
| 2026-05-03 23:52 | 27.87345 | -85.19504 | 36101 ft | 375 kts | 275° |
| 2026-05-03 23:53 | 27.88338 | -85.25305 | 36099 ft | 377 kts | 277° |
| 2026-05-03 23:53 | 27.89934 | -85.31008 | 36104 ft | 382 kts | 282° |
| 2026-05-03 23:54 | 27.91680 | -85.36678 | 36106 ft | 382 kts | 282° |
| 2026-05-03 23:54 | 27.93412 | -85.42333 | 36109 ft | 382 kts | 282° |
| 2026-05-03 23:55 | 27.95141 | -85.48027 | 36106 ft | 382 kts | 282° |
| 2026-05-03 23:55 | 27.96865 | -85.53728 | 36114 ft | 382 kts | 282° |
| 2026-05-03 23:56 | 27.98586 | -85.59433 | 36111 ft | 383 kts | 282° |
| 2026-05-03 23:56 | 28.00300 | -85.65127 | 36115 ft | 383 kts | 282° |
| 2026-05-03 23:57 | 28.02002 | -85.70789 | 36114 ft | 383 kts | 282° |
| 2026-05-03 23:57 | 28.03718 | -85.76511 | 36114 ft | 383 kts | 282° |
| 2026-05-03 23:58 | 28.05429 | -85.82220 | 36113 ft | 383 kts | 282° |
| 2026-05-03 23:58 | 28.07137 | -85.87933 | 36114 ft | 383 kts | 282° |
| 2026-05-03 23:59 | 28.08842 | -85.93647 | 36113 ft | 383 kts | 282° |
| 2026-05-03 23:59 | 28.10536 | -85.99332 | 36115 ft | 383 kts | 282° |
| 2026-05-04 00:00 | 28.12242 | -86.05066 | 36114 ft | 383 kts | 282° |
| 2026-05-04 00:00 | 28.13945 | -86.10799 | 36117 ft | 383 kts | 282° |
| 2026-05-04 00:01 | 28.15643 | -86.16529 | 36115 ft | 384 kts | 283° |
| 2026-05-04 00:01 | 28.17330 | -86.22228 | 36112 ft | 384 kts | 283° |
| 2026-05-04 00:02 | 28.19026 | -86.27966 | 36111 ft | 384 kts | 283° |
| 2026-05-04 00:02 | 28.20719 | -86.33706 | 36128 ft | 384 kts | 283° |
| 2026-05-04 00:03 | 28.22410 | -86.39450 | 36123 ft | 384 kts | 283° |
| 2026-05-04 00:03 | 28.24097 | -86.45190 | 36118 ft | 384 kts | 283° |
| 2026-05-04 00:04 | 28.25782 | -86.50934 | 36130 ft | 384 kts | 283° |
| 2026-05-04 00:04 | 28.27464 | -86.56675 | 36127 ft | 384 kts | 283° |
| 2026-05-04 00:05 | 28.29144 | -86.62424 | 36123 ft | 384 kts | 283° |
| 2026-05-04 00:05 | 28.30813 | -86.68141 | 36122 ft | 384 kts | 283° |
| 2026-05-04 00:06 | 28.32494 | -86.73895 | 36128 ft | 384 kts | 283° |
| 2026-05-04 00:06 | 28.34181 | -86.79649 | 36128 ft | 384 kts | 283° |
| 2026-05-04 00:07 | 28.35865 | -86.85403 | 36126 ft | 384 kts | 283° |
| 2026-05-04 00:07 | 28.37546 | -86.91161 | 36131 ft | 384 kts | 283° |
| 2026-05-04 00:08 | 28.39224 | -86.96918 | 36130 ft | 384 kts | 284° |
| 2026-05-04 00:08 | 28.40899 | -87.02675 | 36129 ft | 384 kts | 284° |
| 2026-05-04 00:09 | 28.42561 | -87.08399 | 36133 ft | 384 kts | 284° |
| 2026-05-04 00:09 | 28.44234 | -87.14169 | 36129 ft | 384 kts | 284° |
| 2026-05-04 00:10 | 28.45903 | -87.19939 | 36130 ft | 384 kts | 284° |
| 2026-05-04 00:10 | 28.47572 | -87.25716 | 36133 ft | 384 kts | 284° |
| 2026-05-04 00:11 | 28.49239 | -87.31499 | 36131 ft | 385 kts | 284° |
| 2026-05-04 00:11 | 28.50903 | -87.37281 | 36131 ft | 385 kts | 284° |
| 2026-05-04 00:12 | 28.52556 | -87.43033 | 36132 ft | 385 kts | 284° |
| 2026-05-04 00:12 | 28.54217 | -87.48825 | 36130 ft | 385 kts | 284° |
| 2026-05-04 00:13 | 28.55876 | -87.54619 | 36130 ft | 385 kts | 284° |
| 2026-05-04 00:13 | 28.57534 | -87.60421 | 36131 ft | 385 kts | 284° |
| 2026-05-04 00:14 | 28.59177 | -87.66184 | 36131 ft | 385 kts | 284° |
| 2026-05-04 00:14 | 28.60830 | -87.71988 | 36135 ft | 386 kts | 284° |
| 2026-05-04 00:15 | 28.62483 | -87.77806 | 36138 ft | 386 kts | 284° |
| 2026-05-04 00:15 | 28.64133 | -87.83622 | 36137 ft | 386 kts | 285° |
| 2026-05-04 00:16 | 28.65777 | -87.89428 | 36136 ft | 386 kts | 285° |
| 2026-05-04 00:16 | 28.67424 | -87.95253 | 36136 ft | 386 kts | 285° |
| 2026-05-04 00:17 | 28.69058 | -88.01044 | 36139 ft | 386 kts | 285° |
| 2026-05-04 00:17 | 28.70697 | -88.06865 | 36137 ft | 386 kts | 285° |
| 2026-05-04 00:18 | 28.72335 | -88.12698 | 36137 ft | 386 kts | 285° |
| 2026-05-04 00:18 | 28.73968 | -88.18531 | 36139 ft | 386 kts | 285° |
| 2026-05-04 00:19 | 28.75591 | -88.24342 | 36138 ft | 387 kts | 285° |
| 2026-05-04 00:19 | 28.77220 | -88.30182 | 36140 ft | 387 kts | 285° |
| 2026-05-04 00:20 | 28.78850 | -88.36035 | 36140 ft | 387 kts | 285° |
| 2026-05-04 00:20 | 28.80474 | -88.41881 | 36143 ft | 387 kts | 285° |
| 2026-05-04 00:21 | 28.81200 | -88.44497 | 36142 ft | 387 kts | 285° |
| 2026-05-04 00:21 | 28.82574 | -88.49456 | 36140 ft | 387 kts | 285° |
| 2026-05-04 00:22 | 28.84194 | -88.55309 | 36140 ft | 386 kts | 285° |
| 2026-05-04 00:22 | 28.85809 | -88.61155 | 36142 ft | 386 kts | 285° |
| 2026-05-04 00:23 | 28.87479 | -88.66990 | 36136 ft | 388 kts | 290° |
| 2026-05-04 00:23 | 28.90057 | -88.72421 | 36139 ft | 392 kts | 300° |
| 2026-05-04 00:24 | 28.93559 | -88.77276 | 36142 ft | 396 kts | 306° |
| 2026-05-04 00:24 | 28.96568 | -88.81224 | 36144 ft | 397 kts | 306° |
| 2026-05-04 00:25 | 29.00772 | -88.86764 | 36143 ft | 397 kts | 306° |
| 2026-05-04 00:25 | 29.04370 | -88.91537 | 36147 ft | 397 kts | 306° |
| 2026-05-04 00:26 | 29.07371 | -88.95532 | 36145 ft | 396 kts | 306° |
| 2026-05-04 00:26 | 29.10958 | -89.00314 | 36143 ft | 396 kts | 306° |
| 2026-05-04 00:27 | 29.14548 | -89.05106 | 36144 ft | 396 kts | 306° |
| 2026-05-04 00:27 | 29.18106 | -89.09862 | 36142 ft | 396 kts | 306° |
| 2026-05-04 00:28 | 29.21686 | -89.14652 | 36142 ft | 395 kts | 306° |
| 2026-05-04 00:28 | 29.25262 | -89.19442 | 36140 ft | 395 kts | 306° |
| 2026-05-04 00:29 | 29.28835 | -89.24233 | 36142 ft | 395 kts | 306° |
| 2026-05-04 00:29 | 29.32379 | -89.28992 | 36142 ft | 395 kts | 306° |
| 2026-05-04 00:30 | 29.35945 | -89.33785 | 36133 ft | 393 kts | 306° |
| 2026-05-04 00:30 | 29.39465 | -89.38521 | 36144 ft | 388 kts | 306° |
| 2026-05-04 00:31 | 29.42976 | -89.43255 | 35514 ft | 394 kts | 307° |
| 2026-05-04 00:31 | 29.44745 | -89.45641 | 34817 ft | 392 kts | 307° |
| 2026-05-04 00:31 | 29.46512 | -89.48026 | 33974 ft | 392 kts | 307° |
| 2026-05-04 00:32 | 29.48258 | -89.50385 | 33000 ft | 394 kts | 307° |
| 2026-05-04 00:32 | 29.50034 | -89.52784 | 32032 ft | 395 kts | 308° |
| 2026-05-04 00:32 | 29.51818 | -89.55196 | 31043 ft | 396 kts | 308° |
| 2026-05-04 00:32 | 29.53609 | -89.57618 | 30016 ft | 398 kts | 308° |
| 2026-05-04 00:33 | 29.55403 | -89.60046 | 28868 ft | 399 kts | 308° |
| 2026-05-04 00:33 | 29.58999 | -89.64918 | 26690 ft | 398 kts | 308° |
| 2026-05-04 00:33 | 29.60767 | -89.67314 | 25732 ft | 397 kts | 309° |
| 2026-05-04 00:34 | 29.62543 | -89.69725 | 24848 ft | 393 kts | 309° |
| 2026-05-04 00:34 | 29.64308 | -89.72120 | 23985 ft | 391 kts | 309° |
| 2026-05-04 00:34 | 29.66061 | -89.74501 | 23014 ft | 389 kts | 309° |
| 2026-05-04 00:34 | 29.67802 | -89.76867 | 22097 ft | 385 kts | 309° |
| 2026-05-04 00:35 | 29.69524 | -89.79209 | 21182 ft | 382 kts | 310° |
| 2026-05-04 00:35 | 29.71246 | -89.81550 | 20062 ft | 385 kts | 310° |
| 2026-05-04 00:35 | 29.72981 | -89.83911 | 18979 ft | 388 kts | 310° |
| 2026-05-04 00:35 | 29.74731 | -89.86292 | 17862 ft | 390 kts | 310° |
| 2026-05-04 00:36 | 29.76487 | -89.88682 | 16818 ft | 389 kts | 310° |
| 2026-05-04 00:36 | 29.78228 | -89.91054 | 15882 ft | 385 kts | 310° |
| 2026-05-04 00:36 | 29.79931 | -89.93376 | 14948 ft | 383 kts | 310° |
| 2026-05-04 00:36 | 29.81648 | -89.95719 | 14074 ft | 380 kts | 310° |
| 2026-05-04 00:37 | 29.83350 | -89.98043 | 13148 ft | 377 kts | 310° |
| 2026-05-04 00:37 | 29.85033 | -90.00342 | 12277 ft | 373 kts | 310° |
| 2026-05-04 00:37 | 29.86696 | -90.02627 | 11302 ft | 372 kts | 310° |
| 2026-05-04 00:37 | 29.88301 | -90.04910 | 10930 ft | 357 kts | 305° |
| 2026-05-04 00:38 | 29.89274 | -90.07448 | 10737 ft | 340 kts | 286° |
| 2026-05-04 00:38 | 29.89742 | -90.10056 | 10576 ft | 323 kts | 282° |
| 2026-05-04 00:38 | 29.90105 | -90.12554 | 10422 ft | 308 kts | 281° |
| 2026-05-04 00:38 | 29.90436 | -90.14953 | 10187 ft | 298 kts | 281° |
| 2026-05-04 00:39 | 29.90747 | -90.17257 | 10066 ft | 285 kts | 281° |
| 2026-05-04 00:39 | 29.91039 | -90.19462 | 9708 ft | 281 kts | 281° |
| 2026-05-04 00:39 | 29.91331 | -90.21673 | 9367 ft | 277 kts | 281° |
| 2026-05-04 00:39 | 29.91525 | -90.23146 | 9105 ft | 275 kts | 280° |
| 2026-05-04 00:40 | 29.91688 | -90.24368 | 8901 ft | 274 kts | 281° |